createdAt,value
2023-02-19T00:00:09.514Z,97862.16
2023-02-19T00:02:47.931Z,97869.16
2023-02-19T00:05:19.578Z,97864.47
2023-02-19T00:07:51.193Z,97868.28
2023-02-19T00:10:22.859Z,97873.38
2023-02-19T00:12:54.461Z,97875.81
2023-02-19T00:15:26.142Z,97866.13
2023-02-19T00:17:57.790Z,97859.50
2023-02-19T00:20:29.415Z,97861.34
2023-02-19T00:23:01.129Z,97856.19
2023-02-19T00:25:37.059Z,97862.28
2023-02-19T00:28:08.663Z,97865.06
2023-02-19T00:30:40.372Z,97854.06
2023-02-19T00:33:11.972Z,97859.38
2023-02-19T00:35:43.586Z,97865.50
2023-02-19T00:38:15.199Z,97864.72
2023-02-19T00:40:46.789Z,97864.72
2023-02-19T00:43:19.468Z,97858.94
2023-02-19T00:45:51.105Z,97857.81
2023-02-19T00:48:22.757Z,97852.50
2023-02-19T00:50:54.375Z,97862.56
2023-02-19T00:53:26.213Z,97859.50
2023-02-19T00:55:57.843Z,97861.19
2023-02-19T00:58:29.594Z,97863.09
2023-02-19T01:01:01.342Z,97862.91
2023-02-19T01:03:37.433Z,97864.88
2023-02-19T01:06:10.798Z,97862.47
2023-02-19T01:08:43.198Z,97869.34
2023-02-19T01:11:16.082Z,97867.34
2023-02-19T01:13:47.936Z,97856.03
2023-02-19T01:16:22.904Z,97858.13
2023-02-19T01:18:54.640Z,97858.81
2023-02-19T01:21:27.749Z,97854.56
2023-02-19T01:23:59.530Z,97862.31
2023-02-19T01:26:33.277Z,97860.69
2023-02-19T01:29:04.897Z,97860.16
2023-02-19T01:31:36.802Z,97861.41
2023-02-19T01:34:11.126Z,97854.94
2023-02-19T01:36:42.755Z,97864.81
2023-02-19T01:39:14.443Z,97859.00
2023-02-19T01:41:46.057Z,97859.47
2023-02-19T01:44:17.600Z,97857.84
2023-02-19T01:46:49.210Z,97852.09
2023-02-19T01:49:29.263Z,97850.41
2023-02-19T01:52:13.886Z,97847.66
2023-02-19T01:54:49.709Z,97842.44
2023-02-19T01:57:28.794Z,97840.75
2023-02-19T02:00:15.774Z,97840.97
2023-02-19T02:02:53.097Z,97836.47
2023-02-19T02:05:31.205Z,97836.94
2023-02-19T02:08:04.329Z,97839.59
2023-02-19T02:10:36.332Z,97827.31
2023-02-19T02:13:07.962Z,97822.34
2023-02-19T02:15:51.964Z,97830.63
2023-02-19T02:18:46.009Z,97824.91
2023-02-19T02:21:46.739Z,97826.28
2023-02-19T02:24:45.056Z,97816.91
2023-02-19T02:27:28.252Z,97823.00
2023-02-19T02:30:12.775Z,97812.13
2023-02-19T02:32:53.625Z,97810.25
2023-02-19T02:35:37.177Z,97812.44
2023-02-19T02:38:13.520Z,97804.41
2023-02-19T02:40:46.361Z,97804.59
2023-02-19T02:43:18.797Z,97803.59
2023-02-19T02:45:50.401Z,97813.28
2023-02-19T02:48:45.805Z,97811.31
2023-02-19T02:51:25.270Z,97804.16
2023-02-19T02:54:12.167Z,97803.03
2023-02-19T02:56:48.181Z,97807.56
2023-02-19T02:59:25.076Z,97804.94
2023-02-19T03:02:17.648Z,97791.44
2023-02-19T03:04:52.429Z,97790.53
2023-02-19T03:07:29.710Z,97793.44
2023-02-19T03:10:07.107Z,97796.25
2023-02-19T03:12:42.030Z,97797.16
2023-02-19T03:15:17.257Z,97792.25
2023-02-19T03:17:56.138Z,97794.19
2023-02-19T03:20:31.633Z,97788.38
2023-02-19T03:23:06.449Z,97795.13
2023-02-19T03:25:39.878Z,97787.88
2023-02-19T03:28:15.313Z,97777.03
2023-02-19T03:30:53.593Z,97777.03
2023-02-19T03:33:29.859Z,97770.22
2023-02-19T03:36:07.717Z,97776.72
2023-02-19T03:39:06.852Z,97776.09
2023-02-19T03:42:02.610Z,97779.69
2023-02-19T03:45:02.521Z,97778.00
2023-02-19T03:47:58.106Z,97774.34
2023-02-19T03:50:49.122Z,97787.03
2023-02-19T03:53:37.922Z,97778.06
2023-02-19T03:56:35.650Z,97781.88
2023-02-19T03:59:17.281Z,97782.31
2023-02-19T04:01:52.555Z,97791.44
2023-02-19T04:04:37.639Z,97793.94
2023-02-19T04:07:10.301Z,97797.09
2023-02-19T04:09:49.314Z,97805.06
2023-02-19T04:12:24.412Z,97811.19
2023-02-19T04:15:05.593Z,97813.97
2023-02-19T04:18:14.360Z,97809.22
2023-02-19T04:20:48.609Z,97810.94
2023-02-19T04:23:26.523Z,97816.34
2023-02-19T04:26:01.198Z,97808.63
2023-02-19T04:28:33.000Z,97818.88
2023-02-19T04:31:04.765Z,97825.88
2023-02-19T04:33:37.211Z,97832.44
2023-02-19T04:36:10.606Z,97838.31
2023-02-19T04:38:42.226Z,97848.94
2023-02-19T04:41:13.820Z,97847.41
2023-02-19T04:43:45.404Z,97842.34
2023-02-19T04:46:17.227Z,97838.25
2023-02-19T04:48:48.885Z,97831.38
2023-02-19T04:51:20.601Z,97825.69
2023-02-19T04:53:52.227Z,97838.09
2023-02-19T04:56:24.307Z,97847.81
2023-02-19T04:58:56.607Z,97846.03
2023-02-19T05:01:28.560Z,97839.28
2023-02-19T05:04:00.348Z,97841.94
2023-02-19T05:06:31.940Z,97823.03
2023-02-19T05:09:04.020Z,97798.47
2023-02-19T05:11:35.662Z,97808.91
2023-02-19T05:14:07.297Z,97823.09
2023-02-19T05:16:38.902Z,97823.38
2023-02-19T05:19:13.863Z,97830.19
2023-02-19T05:21:45.488Z,97818.63
2023-02-19T05:24:17.146Z,97802.41
2023-02-19T05:26:48.741Z,97797.72
2023-02-19T05:29:20.273Z,97794.41
2023-02-19T05:31:51.991Z,97789.03
2023-02-19T05:34:23.657Z,97781.72
2023-02-19T05:36:55.346Z,97785.97
2023-02-19T05:39:27.030Z,97782.50
2023-02-19T05:41:58.646Z,97780.31
2023-02-19T05:44:30.213Z,97785.13
2023-02-19T05:47:01.853Z,97787.91
2023-02-19T05:49:33.490Z,97801.66
2023-02-19T05:52:05.380Z,97814.44
2023-02-19T05:54:36.983Z,97816.91
2023-02-19T05:57:08.542Z,97793.81
2023-02-19T05:59:40.145Z,97796.88
2023-02-19T06:02:11.845Z,97797.28
2023-02-19T06:04:43.453Z,97797.22
2023-02-19T06:07:15.017Z,97794.88
2023-02-19T06:09:49.885Z,97802.16
2023-02-19T06:12:21.478Z,97812.97
2023-02-19T06:14:53.108Z,97811.16
2023-02-19T06:17:24.746Z,97815.38
2023-02-19T06:19:56.372Z,97825.44
2023-02-19T06:22:28.144Z,97841.16
2023-02-19T06:24:59.719Z,97829.72
2023-02-19T06:27:31.388Z,97832.16
2023-02-19T06:30:03.234Z,97837.19
2023-02-19T06:32:34.987Z,97847.41
2023-02-19T06:35:06.782Z,97861.84
2023-02-19T06:37:38.415Z,97862.81
2023-02-19T06:40:10.294Z,97869.34
2023-02-19T06:42:41.997Z,97865.63
2023-02-19T06:45:13.688Z,97864.72
2023-02-19T06:47:45.245Z,97864.91
2023-02-19T06:50:17.077Z,97855.91
2023-02-19T06:52:48.673Z,97854.13
2023-02-19T06:55:20.349Z,97856.03
2023-02-19T06:57:52.005Z,97856.88
2023-02-19T07:00:23.742Z,97864.78
2023-02-19T07:02:55.280Z,97856.75
2023-02-19T07:05:27.229Z,97861.09
2023-02-19T07:07:58.838Z,97860.47
2023-02-19T07:10:30.481Z,97876.41
2023-02-19T07:13:02.107Z,97885.66
2023-02-19T07:15:33.733Z,97890.09
2023-02-19T07:18:05.523Z,97893.25
2023-02-19T07:20:37.125Z,97902.59
2023-02-19T07:23:09.414Z,97905.66
2023-02-19T07:25:41.174Z,97903.13
2023-02-19T07:28:12.840Z,97898.75
2023-02-19T07:30:44.579Z,97891.94
2023-02-19T07:33:16.324Z,97905.13
2023-02-19T07:35:50.305Z,97910.81
2023-02-19T07:38:24.035Z,97909.38
2023-02-19T07:40:58.801Z,97908.34
2023-02-19T07:43:34.017Z,97911.53
2023-02-19T07:46:06.723Z,97921.28
2023-02-19T07:48:40.118Z,97939.47
2023-02-19T07:51:15.123Z,97939.53
2023-02-19T07:53:47.823Z,97949.44
2023-02-19T07:56:20.078Z,97956.09
2023-02-19T07:58:51.700Z,97946.81
2023-02-19T08:01:24.654Z,97960.19
2023-02-19T08:03:56.247Z,97952.75
2023-02-19T08:06:27.831Z,97953.47
2023-02-19T08:08:59.475Z,97957.03
2023-02-19T08:11:31.477Z,97961.28
2023-02-19T08:14:03.125Z,97961.13
2023-02-19T08:16:43.010Z,97961.34
2023-02-19T08:19:15.084Z,97956.00
2023-02-19T08:21:46.697Z,97958.16
2023-02-19T08:24:18.253Z,97954.97
2023-02-19T08:26:49.838Z,97964.41
2023-02-19T08:29:21.489Z,97960.69
2023-02-19T08:31:53.133Z,97964.13
2023-02-19T08:34:24.748Z,97968.09
2023-02-19T08:36:56.312Z,97965.19
2023-02-19T08:39:27.910Z,97979.34
2023-02-19T08:41:59.592Z,97982.53
2023-02-19T08:44:32.713Z,97984.66
2023-02-19T08:47:04.488Z,97971.22
2023-02-19T08:49:36.072Z,97982.56
2023-02-19T08:52:07.661Z,97978.53
2023-02-19T08:54:39.203Z,97972.72
2023-02-19T08:57:10.911Z,97966.16
2023-02-19T08:59:42.484Z,97966.13
2023-02-19T09:02:14.202Z,97963.75
2023-02-19T09:04:45.878Z,97968.63
2023-02-19T09:07:19.058Z,97968.53
2023-02-19T09:09:50.595Z,97963.69
2023-02-19T09:12:22.447Z,97960.31
2023-02-19T09:14:54.012Z,97960.00
2023-02-19T09:17:26.461Z,97969.03
2023-02-19T09:19:58.040Z,97972.19
2023-02-19T09:22:29.769Z,97970.84
2023-02-19T09:25:01.755Z,97968.91
2023-02-19T09:27:33.360Z,97965.13
2023-02-19T09:30:05.317Z,97961.59
2023-02-19T09:32:37.094Z,97952.75
2023-02-19T09:35:08.683Z,97959.47
2023-02-19T09:37:40.301Z,97959.06
2023-02-19T09:40:12.791Z,97961.59
2023-02-19T09:42:44.468Z,97964.00
2023-02-19T09:45:24.231Z,97958.25
2023-02-19T09:47:58.612Z,97975.59
2023-02-19T09:50:39.153Z,97963.09
2023-02-19T09:53:26.381Z,97968.31
2023-02-19T09:55:59.763Z,97968.41
2023-02-19T09:58:35.359Z,97968.19
2023-02-19T10:01:11.204Z,97971.53
2023-02-19T10:03:49.014Z,97970.78
2023-02-19T10:06:23.646Z,97975.03
2023-02-19T10:09:23.644Z,97973.88
2023-02-19T10:11:58.141Z,97980.06
2023-02-19T10:14:51.128Z,97971.88
2023-02-19T10:17:26.807Z,97972.44
2023-02-19T10:19:58.502Z,97968.28
2023-02-19T10:22:35.060Z,97968.72
2023-02-19T10:25:07.626Z,97975.97
2023-02-19T10:27:39.314Z,97962.16
2023-02-19T10:30:22.447Z,97966.75
2023-02-19T10:33:04.180Z,97961.47
2023-02-19T10:35:51.086Z,97960.59
2023-02-19T10:38:39.139Z,97972.31
2023-02-19T10:41:30.782Z,97970.25
2023-02-19T10:44:14.046Z,97977.75
2023-02-19T10:46:49.752Z,97968.28
2023-02-19T10:49:27.432Z,97959.78
2023-02-19T10:52:10.467Z,97963.03
2023-02-19T10:54:42.020Z,97965.34
2023-02-19T10:57:19.511Z,97971.91
2023-02-19T11:00:00.187Z,97964.53
2023-02-19T11:02:31.883Z,97963.63
2023-02-19T11:05:12.002Z,97966.22
2023-02-19T11:07:56.335Z,97958.22
2023-02-19T11:10:33.534Z,97963.28
2023-02-19T11:13:13.593Z,97966.06
2023-02-19T11:15:53.300Z,97958.81
2023-02-19T11:18:31.766Z,97951.28
2023-02-19T11:21:07.853Z,97950.66
2023-02-19T11:23:47.090Z,97950.00
2023-02-19T11:26:24.031Z,97947.53
2023-02-19T11:29:01.029Z,97937.75
2023-02-19T11:31:33.774Z,97930.97
2023-02-19T11:34:14.354Z,97925.63
2023-02-19T11:36:46.033Z,97923.56
2023-02-19T11:39:17.602Z,97917.16
2023-02-19T11:42:04.043Z,97920.44
2023-02-19T11:45:01.839Z,97914.63
2023-02-19T11:47:45.835Z,97913.59
2023-02-19T11:50:53.429Z,97915.16
2023-02-19T11:53:31.815Z,97917.81
2023-02-19T11:56:18.173Z,97896.00
2023-02-19T11:59:01.435Z,97890.47
2023-02-19T12:01:54.251Z,97885.19
2023-02-19T12:05:01.261Z,97876.09
2023-02-19T12:07:51.145Z,97874.88
2023-02-19T12:10:38.715Z,97859.53
2023-02-19T12:13:13.407Z,97863.72
2023-02-19T12:16:14.420Z,97860.94
2023-02-19T12:19:37.247Z,97854.72
2023-02-19T12:22:39.638Z,97854.81
2023-02-19T12:26:02.570Z,97856.22
2023-02-19T12:28:58.651Z,97849.19
2023-02-19T12:31:45.087Z,97854.94
2023-02-19T12:34:35.132Z,97856.00
2023-02-19T12:37:43.764Z,97858.06
2023-02-19T12:40:15.484Z,97851.78
2023-02-19T12:43:11.022Z,97855.91
2023-02-19T12:46:01.801Z,97861.13
2023-02-19T12:48:47.330Z,97854.81
2023-02-19T12:51:25.029Z,97845.47
2023-02-19T12:54:43.313Z,97854.63
2023-02-19T12:57:26.964Z,97845.00
2023-02-19T13:00:18.504Z,97847.50
2023-02-19T13:03:19.013Z,97841.03
2023-02-19T13:06:27.259Z,97839.72
2023-02-19T13:09:06.717Z,97830.88
2023-02-19T13:11:48.541Z,97823.31
2023-02-19T13:14:25.962Z,97822.47
2023-02-19T13:17:02.790Z,97820.88
2023-02-19T13:19:36.508Z,97811.31
2023-02-19T13:22:46.094Z,97809.13
2023-02-19T13:25:20.669Z,97805.75
2023-02-19T13:28:13.050Z,97818.06
2023-02-19T13:30:56.936Z,97820.56
2023-02-19T13:33:28.527Z,97810.50
2023-02-19T13:36:10.480Z,97803.09
2023-02-19T13:38:47.220Z,97808.28
2023-02-19T13:41:29.874Z,97802.72
2023-02-19T13:44:05.773Z,97804.72
2023-02-19T13:46:46.113Z,97809.25
2023-02-19T13:49:29.541Z,97811.00
2023-02-19T13:52:04.170Z,97814.00
2023-02-19T13:54:36.527Z,97811.13
2023-02-19T13:57:31.167Z,97797.25
2023-02-19T14:00:41.346Z,97798.94
2023-02-19T14:03:28.978Z,97808.28
2023-02-19T14:06:05.081Z,97811.06
2023-02-19T14:08:57.801Z,97813.50
2023-02-19T14:11:41.358Z,97804.38
2023-02-19T14:14:34.069Z,97802.91
2023-02-19T14:17:08.525Z,97807.00
2023-02-19T14:19:44.356Z,97801.78
2023-02-19T14:22:46.849Z,97793.00
2023-02-19T14:25:27.488Z,97787.81
2023-02-19T14:28:11.165Z,97786.84
2023-02-19T14:30:55.886Z,97784.63
2023-02-19T14:33:35.064Z,97781.19
2023-02-19T14:36:16.935Z,97771.13
2023-02-19T14:38:52.889Z,97762.09
2023-02-19T14:41:27.388Z,97771.22
2023-02-19T14:44:02.168Z,97762.88
2023-02-19T14:46:43.026Z,97757.16
2023-02-19T14:49:41.916Z,97752.00
2023-02-19T14:52:44.400Z,97758.53
2023-02-19T14:55:35.767Z,97770.28
2023-02-19T14:58:18.537Z,97762.63
2023-02-19T15:00:50.120Z,97764.03
2023-02-19T15:03:25.840Z,97761.31
2023-02-19T15:06:06.087Z,97757.41
2023-02-19T15:08:46.648Z,97760.84
2023-02-19T15:11:25.557Z,97771.72
2023-02-19T15:14:08.563Z,97774.94
2023-02-19T15:16:40.401Z,97787.16
2023-02-19T15:19:17.158Z,97788.41
2023-02-19T15:21:49.416Z,97789.31
2023-02-19T15:24:21.286Z,97786.94
2023-02-19T15:26:55.112Z,97781.69
2023-02-19T15:29:27.746Z,97782.72
2023-02-19T15:32:01.202Z,97786.28
2023-02-19T15:34:33.226Z,97780.00
2023-02-19T15:37:08.956Z,97786.75
2023-02-19T15:39:53.070Z,97785.06
2023-02-19T15:42:29.486Z,97782.63
2023-02-19T15:45:16.273Z,97779.09
2023-02-19T15:48:08.233Z,97769.44
2023-02-19T15:50:47.591Z,97770.84
2023-02-19T15:53:24.429Z,97767.44
2023-02-19T15:56:33.472Z,97764.53
2023-02-19T15:59:34.017Z,97780.38
2023-02-19T16:02:13.485Z,97790.97
2023-02-19T16:04:46.037Z,97803.22
2023-02-19T16:07:26.968Z,97802.94
2023-02-19T16:10:18.621Z,97807.06
2023-02-19T16:12:58.592Z,97803.44
2023-02-19T16:15:32.226Z,97812.25
2023-02-19T16:18:04.823Z,97818.41
2023-02-19T16:20:36.539Z,97815.78
2023-02-19T16:23:18.444Z,97825.44
2023-02-19T16:25:59.220Z,97815.28
2023-02-19T16:28:40.273Z,97820.94
2023-02-19T16:31:14.263Z,97811.09
2023-02-19T16:33:48.699Z,97807.69
2023-02-19T16:36:29.414Z,97812.00
2023-02-19T16:39:07.180Z,97816.47
2023-02-19T16:41:45.041Z,97824.41
2023-02-19T16:44:27.591Z,97819.63
2023-02-19T16:47:12.581Z,97817.63
2023-02-19T16:49:44.500Z,97817.66
2023-02-19T16:52:16.502Z,97830.06
2023-02-19T16:54:49.336Z,97838.56
2023-02-19T16:57:21.383Z,97835.94
2023-02-19T16:59:53.224Z,97845.22
2023-02-19T17:02:25.924Z,97851.19
2023-02-19T17:04:57.642Z,97860.31
2023-02-19T17:07:29.477Z,97864.97
2023-02-19T17:10:01.075Z,97858.78
2023-02-19T17:12:33.193Z,97867.09
2023-02-19T17:15:05.051Z,97876.72
2023-02-19T17:17:36.624Z,97876.72
2023-02-19T17:20:17.348Z,97882.31
2023-02-19T17:22:48.962Z,97888.72
2023-02-19T17:25:20.985Z,97883.66
2023-02-19T17:27:52.571Z,97895.63
2023-02-19T17:30:29.704Z,97891.88
2023-02-19T17:33:01.741Z,97893.22
2023-02-19T17:35:33.368Z,97900.41
2023-02-19T17:38:04.969Z,97906.53
2023-02-19T17:40:36.786Z,97902.81
2023-02-19T17:43:08.558Z,97909.22
2023-02-19T17:45:40.316Z,97918.31
2023-02-19T17:48:14.142Z,97920.44
2023-02-19T17:50:45.761Z,97929.19
2023-02-19T17:53:17.330Z,97939.25
2023-02-19T17:55:49.026Z,97929.59
2023-02-19T17:58:20.618Z,97934.63
2023-02-19T18:00:52.535Z,97936.50
2023-02-19T18:03:24.654Z,97944.19
2023-02-19T18:05:56.946Z,97940.16
2023-02-19T18:08:28.857Z,97941.66
2023-02-19T18:11:00.445Z,97947.22
2023-02-19T18:13:32.053Z,97943.50
2023-02-19T18:16:05.663Z,97945.69
2023-02-19T18:18:37.662Z,97950.28
2023-02-19T18:21:10.842Z,97956.81
2023-02-19T18:23:43.269Z,97956.81
2023-02-19T18:26:20.035Z,97953.91
2023-02-19T18:28:51.678Z,97948.84
2023-02-19T18:31:23.359Z,97953.94
2023-02-19T18:33:55.130Z,97961.44
2023-02-19T18:36:26.725Z,97963.91
2023-02-19T18:38:58.300Z,97957.69
2023-02-19T18:41:30.150Z,97958.31
2023-02-19T18:44:01.907Z,97949.69
2023-02-19T18:46:33.831Z,97951.13
2023-02-19T18:49:05.509Z,97946.94
2023-02-19T18:51:37.098Z,97942.47
2023-02-19T18:54:08.797Z,97946.75
2023-02-19T18:56:44.798Z,97948.44
2023-02-19T18:59:16.885Z,97937.97
2023-02-19T19:01:49.210Z,97944.06
2023-02-19T19:04:21.082Z,97947.50
2023-02-19T19:06:53.007Z,97953.03
2023-02-19T19:09:24.683Z,97955.38
2023-02-19T19:11:56.355Z,97946.81
2023-02-19T19:14:28.095Z,97955.34
2023-02-19T19:16:59.952Z,97958.50
2023-02-19T19:19:31.667Z,97958.03
2023-02-19T19:22:06.260Z,97962.88
2023-02-19T19:24:38.223Z,97970.06
2023-02-19T19:27:09.951Z,97966.66
2023-02-19T19:29:41.690Z,97969.38
2023-02-19T19:32:15.402Z,97960.63
2023-02-19T19:34:47.096Z,97971.09
2023-02-19T19:37:18.815Z,97988.31
2023-02-19T19:39:50.944Z,97982.44
2023-02-19T19:42:31.516Z,97990.00
2023-02-19T19:45:04.038Z,97985.25
2023-02-19T19:47:35.760Z,97981.69
2023-02-19T19:50:07.607Z,97986.03
2023-02-19T19:52:39.293Z,97978.69
2023-02-19T19:55:13.141Z,97977.97
2023-02-19T19:57:48.559Z,97976.94
2023-02-19T20:00:20.665Z,97977.41
2023-02-19T20:02:52.359Z,97973.00
2023-02-19T20:05:24.086Z,97959.31
2023-02-19T20:07:55.698Z,97960.00
2023-02-19T20:10:27.546Z,97952.06
2023-02-19T20:13:02.468Z,97958.38
2023-02-19T20:15:34.208Z,97959.69
2023-02-19T20:18:05.849Z,97962.13
2023-02-19T20:20:37.874Z,97961.31
2023-02-19T20:23:09.583Z,97973.81
2023-02-19T20:25:41.395Z,97990.81
2023-02-19T20:28:13.103Z,97993.66
2023-02-19T20:30:44.831Z,97995.63
2023-02-19T20:33:16.647Z,98004.75
2023-02-19T20:35:48.285Z,98002.25
2023-02-19T20:38:19.987Z,97991.03
2023-02-19T20:40:51.605Z,97991.88
2023-02-19T20:43:23.198Z,97999.19
2023-02-19T20:45:54.823Z,98000.31
2023-02-19T20:48:26.422Z,98019.28
2023-02-19T20:50:58.042Z,98026.47
2023-02-19T20:53:30.818Z,98026.41
2023-02-19T20:56:02.488Z,98040.69
2023-02-19T20:58:34.101Z,98041.41
2023-02-19T21:01:05.778Z,98045.41
2023-02-19T21:03:37.442Z,98039.19
2023-02-19T21:06:08.995Z,98034.25
2023-02-19T21:08:40.639Z,98039.97
2023-02-19T21:11:12.268Z,98044.03
2023-02-19T21:13:43.963Z,98044.31
2023-02-19T21:16:15.946Z,98051.13
2023-02-19T21:18:47.596Z,98041.50
2023-02-19T21:21:21.077Z,98025.06
2023-02-19T21:23:53.830Z,98024.13
2023-02-19T21:26:33.499Z,98013.03
2023-02-19T21:29:07.130Z,98015.75
2023-02-19T21:31:42.621Z,98024.00
2023-02-19T21:34:16.855Z,98037.31
2023-02-19T21:36:48.797Z,98029.13
2023-02-19T21:39:23.016Z,98038.47
2023-02-19T21:41:54.644Z,98039.19
2023-02-19T21:44:26.274Z,98043.81
2023-02-19T21:46:57.909Z,98049.88
2023-02-19T21:49:29.511Z,98042.22
2023-02-19T21:52:01.149Z,98046.88
2023-02-19T21:54:32.789Z,98056.59
2023-02-19T21:57:04.433Z,98061.81
2023-02-19T21:59:36.094Z,98057.22
2023-02-19T22:02:08.851Z,98059.19
2023-02-19T22:04:40.550Z,98064.47
2023-02-19T22:07:12.697Z,98063.34
2023-02-19T22:09:44.282Z,98059.69
2023-02-19T22:12:16.704Z,98060.44
2023-02-19T22:14:48.314Z,98061.00
2023-02-19T22:17:20.465Z,98062.84
2023-02-19T22:19:52.205Z,98072.94
2023-02-19T22:22:23.799Z,98078.38
2023-02-19T22:24:55.397Z,98071.75
2023-02-19T22:27:28.666Z,98067.06
2023-02-19T22:30:00.946Z,98078.75
2023-02-19T22:32:32.528Z,98073.06
2023-02-19T22:35:04.218Z,98068.56
2023-02-19T22:37:35.861Z,98067.06
2023-02-19T22:40:07.946Z,98059.16
2023-02-19T22:42:39.628Z,98064.94
2023-02-19T22:45:12.017Z,98062.19
2023-02-19T22:47:43.714Z,98068.66
2023-02-19T22:50:20.409Z,98078.59
2023-02-19T22:52:52.207Z,98076.88
2023-02-19T22:55:23.753Z,98080.09
2023-02-19T22:57:55.315Z,98072.38
2023-02-19T23:00:26.909Z,98075.31
2023-02-19T23:02:59.632Z,98070.41
2023-02-19T23:05:31.248Z,98072.69
2023-02-19T23:08:02.947Z,98079.59
2023-02-19T23:10:34.505Z,98078.38
2023-02-19T23:13:06.212Z,98072.81
2023-02-19T23:15:37.845Z,98077.06
2023-02-19T23:18:09.442Z,98076.72
2023-02-19T23:20:41.340Z,98084.47
2023-02-19T23:23:12.909Z,98084.13
2023-02-19T23:25:44.531Z,98081.38
2023-02-19T23:28:16.154Z,98083.03
2023-02-19T23:30:47.906Z,98078.13
2023-02-19T23:33:19.497Z,98094.41
2023-02-19T23:35:51.305Z,98092.81
2023-02-19T23:38:23.058Z,98100.22
2023-02-19T23:40:54.676Z,98099.09
2023-02-19T23:43:26.439Z,98096.03
2023-02-19T23:45:58.046Z,98100.50
2023-02-19T23:48:30.161Z,98096.66
2023-02-19T23:51:01.782Z,98093.75
2023-02-19T23:53:33.393Z,98096.22
2023-02-19T23:56:05.682Z,98096.06
2023-02-19T23:58:37.341Z,98098.31
